sensor_id;sensor_type;location;lat;lon;timestamp;pressure;altitude;pressure_sealevel;temperature;humidity
74079;BME280;62437;51.544;-3.276;2022-10-16T00:00:38;99774.85;;;12.65;50.83
74079;BME280;62437;51.544;-3.276;2022-10-16T00:03:01;99775.85;;;12.58;50.98
74079;BME280;62437;51.544;-3.276;2022-10-16T00:05:26;99774.54;;;12.51;50.11
74079;BME280;62437;51.544;-3.276;2022-10-16T00:07:51;99778.63;;;12.41;50.07
74079;BME280;62437;51.544;-3.276;2022-10-16T00:10:17;99780.05;;;12.66;49.53
74079;BME280;62437;51.544;-3.276;2022-10-16T00:12:43;99785.34;;;12.14;49.81
74079;BME280;62437;51.544;-3.276;2022-10-16T00:15:09;99785.81;;;12.35;49.49
74079;BME280;62437;51.544;-3.276;2022-10-16T00:17:34;99793.98;;;12.39;49.03
74079;BME280;62437;51.544;-3.276;2022-10-16T00:19:59;99794.49;;;12.05;49.99
74079;BME280;62437;51.544;-3.276;2022-10-16T00:22:25;99791.74;;;12.48;49.77
74079;BME280;62437;51.544;-3.276;2022-10-16T00:24:51;99794.15;;;12.05;49.73
74079;BME280;62437;51.544;-3.276;2022-10-16T00:27:16;99793.25;;;12.03;50.17
74079;BME280;62437;51.544;-3.276;2022-10-16T00:29:42;99790.38;;;12.64;49.61
74079;BME280;62437;51.544;-3.276;2022-10-16T00:32:07;99779.90;;;12.40;49.43
74079;BME280;62437;51.544;-3.276;2022-10-16T00:34:33;99780.08;;;12.58;49.93
74079;BME280;62437;51.544;-3.276;2022-10-16T00:36:59;99786.51;;;12.26;50.26
74079;BME280;62437;51.544;-3.276;2022-10-16T00:39:24;99790.29;;;12.31;50.41
74079;BME280;62437;51.544;-3.276;2022-10-16T00:41:50;99773.69;;;11.66;51.79
74079;BME280;62437;51.544;-3.276;2022-10-16T00:46:42;99770.05;;;12.36;50.62
74079;BME280;62437;51.544;-3.276;2022-10-16T00:49:09;99776.03;;;12.53;50.43
74079;BME280;62437;51.544;-3.276;2022-10-16T00:51:36;99773.50;;;12.64;50.74
74079;BME280;62437;51.544;-3.276;2022-10-16T00:53:59;99776.89;;;12.53;50.47
74079;BME280;62437;51.544;-3.276;2022-10-16T00:56:24;99774.25;;;12.83;50.40
74079;BME280;62437;51.544;-3.276;2022-10-16T00:58:50;99766.27;;;12.35;50.74
74079;BME280;62437;51.544;-3.276;2022-10-16T01:01:15;99772.00;;;12.40;50.89
74079;BME280;62437;51.544;-3.276;2022-10-16T01:03:40;99800.85;;;12.58;50.79
74079;BME280;62437;51.544;-3.276;2022-10-16T01:06:16;99843.48;;;12.41;50.40
74079;BME280;62437;51.544;-3.276;2022-10-16T01:08:36;99815.80;;;12.64;51.45
74079;BME280;62437;51.544;-3.276;2022-10-16T01:11:01;99823.34;;;12.36;52.04
74079;BME280;62437;51.544;-3.276;2022-10-16T01:13:26;99837.23;;;11.50;53.63
74079;BME280;62437;51.544;-3.276;2022-10-16T01:15:52;99825.53;;;11.83;52.60
74079;BME280;62437;51.544;-3.276;2022-10-16T01:18:18;99811.12;;;10.51;56.67
74079;BME280;62437;51.544;-3.276;2022-10-16T01:20:44;99815.77;;;10.70;55.55
74079;BME280;62437;51.544;-3.276;2022-10-16T01:23:13;99821.16;;;11.69;54.47
74079;BME280;62437;51.544;-3.276;2022-10-16T01:25:44;99826.54;;;10.69;55.16
74079;BME280;62437;51.544;-3.276;2022-10-16T01:27:57;99830.16;;;10.81;55.49
74079;BME280;62437;51.544;-3.276;2022-10-16T01:30:25;99829.52;;;11.20;53.81
74079;BME280;62437;51.544;-3.276;2022-10-16T01:32:52;99826.12;;;11.81;52.89
74079;BME280;62437;51.544;-3.276;2022-10-16T01:35:18;99827.60;;;12.18;51.34
74079;BME280;62437;51.544;-3.276;2022-10-16T01:37:43;99827.28;;;11.95;51.35
74079;BME280;62437;51.544;-3.276;2022-10-16T01:40:09;99841.36;;;12.10;50.79
74079;BME280;62437;51.544;-3.276;2022-10-16T01:42:34;99841.19;;;12.22;50.58
74079;BME280;62437;51.544;-3.276;2022-10-16T01:44:59;99843.49;;;12.25;50.88
74079;BME280;62437;51.544;-3.276;2022-10-16T01:47:25;99845.88;;;12.22;50.25
74079;BME280;62437;51.544;-3.276;2022-10-16T01:49:48;99849.84;;;12.23;50.53
74079;BME280;62437;51.544;-3.276;2022-10-16T01:52:17;99854.79;;;11.77;50.27
74079;BME280;62437;51.544;-3.276;2022-10-16T01:54:41;99862.32;;;12.25;49.37
74079;BME280;62437;51.544;-3.276;2022-10-16T01:57:06;99859.94;;;11.99;49.03
74079;BME280;62437;51.544;-3.276;2022-10-16T01:59:32;99861.90;;;12.10;49.70
74079;BME280;62437;51.544;-3.276;2022-10-16T02:02:00;99859.20;;;11.90;49.95
74079;BME280;62437;51.544;-3.276;2022-10-16T02:04:26;99859.58;;;12.14;50.72
74079;BME280;62437;51.544;-3.276;2022-10-16T02:06:47;99862.10;;;12.48;49.40
74079;BME280;62437;51.544;-3.276;2022-10-16T02:09:13;99864.64;;;12.08;50.36
74079;BME280;62437;51.544;-3.276;2022-10-16T02:11:39;99864.08;;;12.43;50.06
74079;BME280;62437;51.544;-3.276;2022-10-16T02:14:06;99866.37;;;12.04;49.79
74079;BME280;62437;51.544;-3.276;2022-10-16T02:16:34;99869.02;;;12.22;50.66
74079;BME280;62437;51.544;-3.276;2022-10-16T02:18:56;99874.41;;;12.04;49.91
74079;BME280;62437;51.544;-3.276;2022-10-16T02:21:26;99877.06;;;12.22;50.07
74079;BME280;62437;51.544;-3.276;2022-10-16T02:23:51;99878.06;;;12.37;49.90
74079;BME280;62437;51.544;-3.276;2022-10-16T02:26:16;99892.10;;;12.01;50.61
74079;BME280;62437;51.544;-3.276;2022-10-16T02:28:42;99897.31;;;12.26;50.69
74079;BME280;62437;51.544;-3.276;2022-10-16T02:31:08;99923.25;;;11.97;51.41
74079;BME280;62437;51.544;-3.276;2022-10-16T02:33:30;99931.09;;;12.46;51.07
74079;BME280;62437;51.544;-3.276;2022-10-16T02:35:56;99924.43;;;12.01;51.06
74079;BME280;62437;51.544;-3.276;2022-10-16T02:38:22;99919.19;;;11.47;52.63
74079;BME280;62437;51.544;-3.276;2022-10-16T02:40:47;99924.01;;;11.41;52.96
74079;BME280;62437;51.544;-3.276;2022-10-16T02:43:12;99928.44;;;11.97;51.54
74079;BME280;62437;51.544;-3.276;2022-10-16T02:45:38;99935.19;;;11.81;51.09
74079;BME280;62437;51.544;-3.276;2022-10-16T02:48:03;99939.60;;;11.36;52.06
74079;BME280;62437;51.544;-3.276;2022-10-16T02:50:29;99940.03;;;11.72;51.13
74079;BME280;62437;51.544;-3.276;2022-10-16T02:52:55;99942.83;;;11.40;52.27
74079;BME280;62437;51.544;-3.276;2022-10-16T02:55:20;99940.05;;;11.83;51.22
74079;BME280;62437;51.544;-3.276;2022-10-16T02:57:46;99945.28;;;12.07;50.61
74079;BME280;62437;51.544;-3.276;2022-10-16T03:00:14;99948.34;;;11.88;51.01
74079;BME280;62437;51.544;-3.276;2022-10-16T03:02:37;99956.03;;;11.86;51.62
74079;BME280;62437;51.544;-3.276;2022-10-16T03:05:03;99956.15;;;12.08;51.07
74079;BME280;62437;51.544;-3.276;2022-10-16T03:07:29;99961.15;;;12.30;50.80
74079;BME280;62437;51.544;-3.276;2022-10-16T03:09:55;99962.11;;;11.75;51.27
74079;BME280;62437;51.544;-3.276;2022-10-16T03:12:20;99961.34;;;12.18;50.33
74079;BME280;62437;51.544;-3.276;2022-10-16T03:14:46;99965.79;;;11.98;50.80
74079;BME280;62437;51.544;-3.276;2022-10-16T03:17:11;99970.96;;;12.04;50.38
74079;BME280;62437;51.544;-3.276;2022-10-16T03:19:37;99972.77;;;12.07;50.55
74079;BME280;62437;51.544;-3.276;2022-10-16T03:22:03;99975.52;;;11.90;49.96
74079;BME280;62437;51.544;-3.276;2022-10-16T03:24:28;99982.39;;;11.99;50.32
74079;BME280;62437;51.544;-3.276;2022-10-16T03:26:54;99988.76;;;12.39;50.00
74079;BME280;62437;51.544;-3.276;2022-10-16T03:29:20;99996.59;;;12.28;50.26
74079;BME280;62437;51.544;-3.276;2022-10-16T03:31:45;100009.99;;;11.77;51.13
74079;BME280;62437;51.544;-3.276;2022-10-16T03:34:11;100012.92;;;12.08;49.98
74079;BME280;62437;51.544;-3.276;2022-10-16T03:36:37;100018.30;;;11.33;51.14
74079;BME280;62437;51.544;-3.276;2022-10-16T03:39:03;100017.98;;;12.07;49.62
74079;BME280;62437;51.544;-3.276;2022-10-16T03:41:28;100026.25;;;11.83;50.73
74079;BME280;62437;51.544;-3.276;2022-10-16T03:43:54;100022.78;;;11.98;50.48
74079;BME280;62437;51.544;-3.276;2022-10-16T03:46:19;100026.04;;;11.75;50.64
74079;BME280;62437;51.544;-3.276;2022-10-16T03:48:45;100028.57;;;11.64;50.46
74079;BME280;62437;51.544;-3.276;2022-10-16T03:51:11;100031.93;;;11.69;49.66
74079;BME280;62437;51.544;-3.276;2022-10-16T03:53:37;100038.19;;;11.40;49.94
74079;BME280;62437;51.544;-3.276;2022-10-16T03:56:02;100042.22;;;11.15;50.71
74079;BME280;62437;51.544;-3.276;2022-10-16T03:58:28;100045.98;;;11.53;50.40
74079;BME280;62437;51.544;-3.276;2022-10-16T04:00:53;100049.16;;;11.08;49.47
74079;BME280;62437;51.544;-3.276;2022-10-16T04:03:19;100047.93;;;11.41;49.47
74079;BME280;62437;51.544;-3.276;2022-10-16T04:05:45;100050.73;;;11.05;50.15
74079;BME280;62437;51.544;-3.276;2022-10-16T04:08:10;100054.68;;;11.72;48.65
74079;BME280;62437;51.544;-3.276;2022-10-16T04:10:36;100056.78;;;11.28;49.31
74079;BME280;62437;51.544;-3.276;2022-10-16T04:13:02;100060.34;;;11.23;48.94
74079;BME280;62437;51.544;-3.276;2022-10-16T04:15:27;100064.70;;;11.16;50.00
74079;BME280;62437;51.544;-3.276;2022-10-16T04:17:53;100073.78;;;11.21;49.16
74079;BME280;62437;51.544;-3.276;2022-10-16T04:20:19;100082.48;;;11.09;48.86
74079;BME280;62437;51.544;-3.276;2022-10-16T04:22:44;100086.89;;;10.93;48.99
74079;BME280;62437;51.544;-3.276;2022-10-16T04:25:10;100093.85;;;10.93;48.91
74079;BME280;62437;51.544;-3.276;2022-10-16T04:27:36;100098.60;;;11.04;48.95
74079;BME280;62437;51.544;-3.276;2022-10-16T04:30:02;100105.82;;;11.12;49.50
74079;BME280;62437;51.544;-3.276;2022-10-16T04:32:27;100107.42;;;11.28;49.32
74079;BME280;62437;51.544;-3.276;2022-10-16T04:34:53;100112.84;;;11.08;49.88
74079;BME280;62437;51.544;-3.276;2022-10-16T04:37:18;100117.82;;;11.48;48.77
74079;BME280;62437;51.544;-3.276;2022-10-16T04:39:44;100126.41;;;11.31;49.74
74079;BME280;62437;51.544;-3.276;2022-10-16T04:42:09;100129.55;;;11.85;49.63
74079;BME280;62437;51.544;-3.276;2022-10-16T04:44:35;100131.00;;;11.51;49.66
74079;BME280;62437;51.544;-3.276;2022-10-16T04:47:01;100134.16;;;11.61;50.32
74079;BME280;62437;51.544;-3.276;2022-10-16T04:49:27;100135.07;;;11.38;50.21
74079;BME280;62437;51.544;-3.276;2022-10-16T04:51:52;100139.88;;;11.41;50.51
74079;BME280;62437;51.544;-3.276;2022-10-16T04:54:18;100144.66;;;11.63;50.65
74079;BME280;62437;51.544;-3.276;2022-10-16T04:56:43;100146.23;;;12.00;50.27
74079;BME280;62437;51.544;-3.276;2022-10-16T04:59:09;100150.40;;;11.93;50.33
74079;BME280;62437;51.544;-3.276;2022-10-16T05:01:35;100153.93;;;11.72;50.23
74079;BME280;62437;51.544;-3.276;2022-10-16T05:04:01;100152.46;;;11.56;49.85
74079;BME280;62437;51.544;-3.276;2022-10-16T05:06:26;100152.36;;;11.41;50.16
74079;BME280;62437;51.544;-3.276;2022-10-16T05:08:52;100154.63;;;11.24;49.98
74079;BME280;62437;51.544;-3.276;2022-10-16T05:11:18;100157.98;;;11.22;49.50
74079;BME280;62437;51.544;-3.276;2022-10-16T05:13:43;100160.10;;;11.13;49.61
74079;BME280;62437;51.544;-3.276;2022-10-16T05:16:09;100165.33;;;11.03;49.60
74079;BME280;62437;51.544;-3.276;2022-10-16T05:18:35;100165.18;;;11.14;49.25
74079;BME280;62437;51.544;-3.276;2022-10-16T05:21:00;100172.80;;;11.28;49.50
74079;BME280;62437;51.544;-3.276;2022-10-16T05:23:26;100177.90;;;10.89;48.53
74079;BME280;62437;51.544;-3.276;2022-10-16T05:25:53;100178.93;;;10.96;49.55
74079;BME280;62437;51.544;-3.276;2022-10-16T05:28:17;100180.19;;;10.38;48.90
74079;BME280;62437;51.544;-3.276;2022-10-16T05:30:43;100186.95;;;11.46;48.28
74079;BME280;62437;51.544;-3.276;2022-10-16T05:33:08;100191.72;;;11.27;48.39
74079;BME280;62437;51.544;-3.276;2022-10-16T05:35:34;100194.31;;;11.10;47.97
74079;BME280;62437;51.544;-3.276;2022-10-16T05:37:59;100194.64;;;10.99;48.55
74079;BME280;62437;51.544;-3.276;2022-10-16T05:40:25;100197.90;;;11.20;48.35
74079;BME280;62437;51.544;-3.276;2022-10-16T05:42:55;100203.89;;;10.70;48.99
74079;BME280;62437;51.544;-3.276;2022-10-16T05:45:16;100207.89;;;10.87;48.56
74079;BME280;62437;51.544;-3.276;2022-10-16T05:47:42;100216.51;;;10.60;48.98
74079;BME280;62437;51.544;-3.276;2022-10-16T05:50:08;100217.07;;;10.35;49.20
74079;BME280;62437;51.544;-3.276;2022-10-16T05:52:34;100219.60;;;10.48;49.67
74079;BME280;62437;51.544;-3.276;2022-10-16T05:54:59;100219.40;;;10.69;49.71
74079;BME280;62437;51.544;-3.276;2022-10-16T05:57:25;100220.44;;;10.87;48.51
74079;BME280;62437;51.544;-3.276;2022-10-16T05:59:51;100223.10;;;10.78;48.54
74079;BME280;62437;51.544;-3.276;2022-10-16T06:02:16;100227.56;;;10.34;48.77
74079;BME280;62437;51.544;-3.276;2022-10-16T06:04:42;100232.10;;;10.61;48.29
74079;BME280;62437;51.544;-3.276;2022-10-16T06:07:08;100237.57;;;10.11;48.57
74079;BME280;62437;51.544;-3.276;2022-10-16T06:09:34;100244.85;;;10.30;48.74
74079;BME280;62437;51.544;-3.276;2022-10-16T06:11:59;100248.02;;;10.48;49.00
74079;BME280;62437;51.544;-3.276;2022-10-16T06:14:25;100250.78;;;10.38;49.21
74079;BME280;62437;51.544;-3.276;2022-10-16T06:16:51;100252.28;;;10.46;47.99
74079;BME280;62437;51.544;-3.276;2022-10-16T06:19:16;100251.37;;;10.44;48.76
74079;BME280;62437;51.544;-3.276;2022-10-16T06:21:42;100251.00;;;10.37;49.00
74079;BME280;62437;51.544;-3.276;2022-10-16T06:24:09;100252.50;;;10.41;49.29
74079;BME280;62437;51.544;-3.276;2022-10-16T06:26:33;100250.42;;;10.05;50.31
74079;BME280;62437;51.544;-3.276;2022-10-16T06:29:00;100252.50;;;10.09;50.14
74079;BME280;62437;51.544;-3.276;2022-10-16T06:31:26;100255.02;;;10.10;49.32
74079;BME280;62437;51.544;-3.276;2022-10-16T06:33:51;100256.64;;;10.14;49.74
74079;BME280;62437;51.544;-3.276;2022-10-16T06:36:17;100257.24;;;10.28;48.92
74079;BME280;62437;51.544;-3.276;2022-10-16T06:38:43;100264.08;;;10.60;48.87
74079;BME280;62437;51.544;-3.276;2022-10-16T06:41:09;100271.88;;;10.25;49.93
74079;BME280;62437;51.544;-3.276;2022-10-16T06:43:33;100282.73;;;10.23;49.32
74079;BME280;62437;51.544;-3.276;2022-10-16T06:46:00;100284.12;;;10.20;48.84
74079;BME280;62437;51.544;-3.276;2022-10-16T06:48:25;100281.08;;;9.60;49.99
74079;BME280;62437;51.544;-3.276;2022-10-16T06:50:57;100288.45;;;10.19;48.72
74079;BME280;62437;51.544;-3.276;2022-10-16T06:53:16;100290.24;;;10.15;49.42
74079;BME280;62437;51.544;-3.276;2022-10-16T06:55:42;100292.40;;;10.19;49.28
74079;BME280;62437;51.544;-3.276;2022-10-16T06:58:07;100294.24;;;9.93;50.03
74079;BME280;62437;51.544;-3.276;2022-10-16T07:00:33;100299.87;;;10.24;49.44
74079;BME280;62437;51.544;-3.276;2022-10-16T07:02:59;100299.49;;;10.28;49.51
74079;BME280;62437;51.544;-3.276;2022-10-16T07:05:25;100305.11;;;10.51;49.09
74079;BME280;62437;51.544;-3.276;2022-10-16T07:07:50;100307.53;;;10.34;49.96
74079;BME280;62437;51.544;-3.276;2022-10-16T07:10:16;100317.65;;;10.33;50.32
74079;BME280;62437;51.544;-3.276;2022-10-16T07:12:42;100321.26;;;10.26;50.03
74079;BME280;62437;51.544;-3.276;2022-10-16T07:15:08;100323.90;;;10.03;49.66
74079;BME280;62437;51.544;-3.276;2022-10-16T07:17:33;100327.81;;;10.23;49.77
74079;BME280;62437;51.544;-3.276;2022-10-16T07:19:59;100336.77;;;10.25;49.85
74079;BME280;62437;51.544;-3.276;2022-10-16T07:22:24;100345.42;;;10.29;50.25
74079;BME280;62437;51.544;-3.276;2022-10-16T07:24:50;100346.40;;;10.32;50.63
74079;BME280;62437;51.544;-3.276;2022-10-16T07:27:15;100346.02;;;10.67;50.68
74079;BME280;62437;51.544;-3.276;2022-10-16T07:29:41;100359.05;;;10.67;50.77
74079;BME280;62437;51.544;-3.276;2022-10-16T07:32:07;100367.09;;;10.91;50.69
74079;BME280;62437;51.544;-3.276;2022-10-16T07:34:33;100369.44;;;11.03;50.87
74079;BME280;62437;51.544;-3.276;2022-10-16T07:36:58;100365.28;;;11.33;50.61
74079;BME280;62437;51.544;-3.276;2022-10-16T07:39:24;100364.28;;;11.39;50.68
74079;BME280;62437;51.544;-3.276;2022-10-16T07:41:50;100373.45;;;11.18;50.37
74079;BME280;62437;51.544;-3.276;2022-10-16T07:44:16;100379.58;;;11.24;50.49
74079;BME280;62437;51.544;-3.276;2022-10-16T07:46:41;100384.86;;;11.32;51.07
74079;BME280;62437;51.544;-3.276;2022-10-16T07:49:08;100389.38;;;11.12;51.21
74079;BME280;62437;51.544;-3.276;2022-10-16T07:51:33;100387.23;;;11.23;50.78
74079;BME280;62437;51.544;-3.276;2022-10-16T07:53:58;100393.03;;;11.33;51.09
74079;BME280;62437;51.544;-3.276;2022-10-16T07:56:24;100397.36;;;11.53;50.70
74079;BME280;62437;51.544;-3.276;2022-10-16T07:58:50;100394.56;;;11.26;51.24
74079;BME280;62437;51.544;-3.276;2022-10-16T08:01:16;100394.53;;;11.29;51.20
74079;BME280;62437;51.544;-3.276;2022-10-16T08:03:42;100393.21;;;11.37;51.22
74079;BME280;62437;51.544;-3.276;2022-10-16T08:06:07;100388.95;;;11.30;50.77
74079;BME280;62437;51.544;-3.276;2022-10-16T08:08:33;100386.77;;;11.37;51.08
74079;BME280;62437;51.544;-3.276;2022-10-16T08:10:58;100394.20;;;11.13;51.49
74079;BME280;62437;51.544;-3.276;2022-10-16T08:13:24;100398.10;;;11.55;50.51
74079;BME280;62437;51.544;-3.276;2022-10-16T08:15:50;100404.52;;;11.37;50.34
74079;BME280;62437;51.544;-3.276;2022-10-16T08:18:16;100406.39;;;11.83;50.50
74079;BME280;62437;51.544;-3.276;2022-10-16T08:20:42;100407.53;;;11.64;50.52
74079;BME280;62437;51.544;-3.276;2022-10-16T08:23:08;100412.01;;;11.49;50.53
74079;BME280;62437;51.544;-3.276;2022-10-16T08:25:35;100414.31;;;11.98;50.25
74079;BME280;62437;51.544;-3.276;2022-10-16T08:27:58;100409.23;;;12.17;50.22
74079;BME280;62437;51.544;-3.276;2022-10-16T08:30:24;100417.07;;;11.73;50.80
74079;BME280;62437;51.544;-3.276;2022-10-16T08:32:50;100425.59;;;11.74;50.66
74079;BME280;62437;51.544;-3.276;2022-10-16T08:35:16;100430.31;;;11.69;50.92
74079;BME280;62437;51.544;-3.276;2022-10-16T08:37:42;100430.63;;;11.71;50.99
74079;BME280;62437;51.544;-3.276;2022-10-16T08:40:16;100424.87;;;11.60;51.63
74079;BME280;62437;51.544;-3.276;2022-10-16T08:42:45;100416.83;;;12.01;51.11
74079;BME280;62437;51.544;-3.276;2022-10-16T08:45:15;100414.02;;;11.86;51.01
74079;BME280;62437;51.544;-3.276;2022-10-16T08:47:26;100414.22;;;11.99;51.08
74079;BME280;62437;51.544;-3.276;2022-10-16T08:49:57;100421.52;;;11.73;51.81
74079;BME280;62437;51.544;-3.276;2022-10-16T08:52:15;100425.04;;;11.69;52.21
74079;BME280;62437;51.544;-3.276;2022-10-16T08:54:43;100423.88;;;12.12;51.62
74079;BME280;62437;51.544;-3.276;2022-10-16T08:57:09;100428.04;;;12.00;51.18
74079;BME280;62437;51.544;-3.276;2022-10-16T08:59:32;100423.29;;;12.15;50.80
74079;BME280;62437;51.544;-3.276;2022-10-16T09:01:57;100424.10;;;12.06;50.85
74079;BME280;62437;51.544;-3.276;2022-10-16T09:06:52;100423.66;;;11.87;51.01
74079;BME280;62437;51.544;-3.276;2022-10-16T09:09:27;100429.99;;;11.61;51.36
74079;BME280;62437;51.544;-3.276;2022-10-16T09:11:46;100436.74;;;12.11;51.10
74079;BME280;62437;51.544;-3.276;2022-10-16T09:14:15;100437.77;;;11.83;51.45
74079;BME280;62437;51.544;-3.276;2022-10-16T09:16:36;100437.44;;;12.11;51.34
74079;BME280;62437;51.544;-3.276;2022-10-16T09:19:02;100435.69;;;11.93;51.50
74079;BME280;62437;51.544;-3.276;2022-10-16T09:21:25;100433.44;;;11.84;51.63
74079;BME280;62437;51.544;-3.276;2022-10-16T09:23:49;100432.33;;;12.11;52.02
74079;BME280;62437;51.544;-3.276;2022-10-16T09:26:15;100433.36;;;11.83;52.07
74079;BME280;62437;51.544;-3.276;2022-10-16T09:28:41;100432.69;;;11.60;51.67
74079;BME280;62437;51.544;-3.276;2022-10-16T09:31:07;100431.76;;;12.23;51.51
74079;BME280;62437;51.544;-3.276;2022-10-16T09:33:34;100426.66;;;12.24;51.57
74079;BME280;62437;51.544;-3.276;2022-10-16T09:35:57;100423.28;;;11.92;51.28
74079;BME280;62437;51.544;-3.276;2022-10-16T09:38:26;100427.34;;;12.31;50.97
74079;BME280;62437;51.544;-3.276;2022-10-16T09:40:49;100426.96;;;12.10;52.04
74079;BME280;62437;51.544;-3.276;2022-10-16T09:43:21;100423.71;;;11.99;51.58
74079;BME280;62437;51.544;-3.276;2022-10-16T09:45:39;100423.73;;;12.26;51.47
74079;BME280;62437;51.544;-3.276;2022-10-16T09:48:11;100428.42;;;12.07;51.46
74079;BME280;62437;51.544;-3.276;2022-10-16T09:50:31;100426.34;;;12.42;50.62
74079;BME280;62437;51.544;-3.276;2022-10-16T09:53:04;100427.07;;;12.45;50.55
74079;BME280;62437;51.544;-3.276;2022-10-16T09:55:23;100435.64;;;12.48;50.81
74079;BME280;62437;51.544;-3.276;2022-10-16T09:57:49;100442.41;;;13.00;51.31
74079;BME280;62437;51.544;-3.276;2022-10-16T10:00:17;100447.97;;;12.70;50.29
74079;BME280;62437;51.544;-3.276;2022-10-16T10:02:39;100450.55;;;13.08;50.24
74079;BME280;62437;51.544;-3.276;2022-10-16T10:05:06;100447.33;;;12.79;50.36
74079;BME280;62437;51.544;-3.276;2022-10-16T10:07:32;100448.73;;;12.58;52.29
74079;BME280;62437;51.544;-3.276;2022-10-16T10:09:57;100452.56;;;12.85;50.66
74079;BME280;62437;51.544;-3.276;2022-10-16T10:12:23;100450.13;;;13.02;50.44
74079;BME280;62437;51.544;-3.276;2022-10-16T10:14:49;100446.35;;;12.57;51.08
74079;BME280;62437;51.544;-3.276;2022-10-16T10:17:16;100444.34;;;12.88;51.19
74079;BME280;62437;51.544;-3.276;2022-10-16T10:19:40;100442.00;;;12.61;51.67
74079;BME280;62437;51.544;-3.276;2022-10-16T10:22:16;100442.63;;;12.90;51.30
74079;BME280;62437;51.544;-3.276;2022-10-16T10:24:29;100446.32;;;12.75;52.63
74079;BME280;62437;51.544;-3.276;2022-10-16T10:26:59;100442.87;;;12.74;51.61
74079;BME280;62437;51.544;-3.276;2022-10-16T10:29:28;100436.26;;;12.74;53.13
74079;BME280;62437;51.544;-3.276;2022-10-16T10:31:50;100430.64;;;12.31;53.54
74079;BME280;62437;51.544;-3.276;2022-10-16T10:34:30;100421.93;;;12.54;52.13
74079;BME280;62437;51.544;-3.276;2022-10-16T10:36:38;100415.16;;;12.93;52.03
74079;BME280;62437;51.544;-3.276;2022-10-16T10:39:06;100417.06;;;12.75;52.43
74079;BME280;62437;51.544;-3.276;2022-10-16T10:41:40;100417.64;;;11.97;54.21
74079;BME280;62437;51.544;-3.276;2022-10-16T10:44:03;100416.20;;;12.12;54.74
74079;BME280;62437;51.544;-3.276;2022-10-16T10:46:27;100417.22;;;12.04;54.82
74079;BME280;62437;51.544;-3.276;2022-10-16T10:48:54;100422.65;;;11.79;54.87
74079;BME280;62437;51.544;-3.276;2022-10-16T10:51:14;100425.99;;;11.40;56.58
74079;BME280;62437;51.544;-3.276;2022-10-16T10:53:43;100424.82;;;11.90;56.02
74079;BME280;62437;51.544;-3.276;2022-10-16T10:56:13;100420.99;;;12.66;53.95
74079;BME280;62437;51.544;-3.276;2022-10-16T10:58:45;100420.38;;;12.79;53.27
74079;BME280;62437;51.544;-3.276;2022-10-16T11:00:58;100424.38;;;12.14;54.38
74079;BME280;62437;51.544;-3.276;2022-10-16T11:03:30;100431.16;;;12.09;56.06
74079;BME280;62437;51.544;-3.276;2022-10-16T11:05:45;100428.91;;;12.13;55.25
74079;BME280;62437;51.544;-3.276;2022-10-16T11:08:15;100423.83;;;12.59;54.14
74079;BME280;62437;51.544;-3.276;2022-10-16T11:10:46;100423.64;;;13.32;53.83
74079;BME280;62437;51.544;-3.276;2022-10-16T11:13:09;100421.87;;;12.48;54.38
74079;BME280;62437;51.544;-3.276;2022-10-16T11:15:30;100422.62;;;11.71;56.88
74079;BME280;62437;51.544;-3.276;2022-10-16T11:17:57;100417.79;;;12.76;55.11
74079;BME280;62437;51.544;-3.276;2022-10-16T11:20:21;100421.10;;;12.49;55.11
74079;BME280;62437;51.544;-3.276;2022-10-16T11:22:48;100423.90;;;13.40;53.33
74079;BME280;62437;51.544;-3.276;2022-10-16T11:25:14;100419.36;;;13.28;52.78
74079;BME280;62437;51.544;-3.276;2022-10-16T11:27:39;100419.24;;;13.61;52.59
74079;BME280;62437;51.544;-3.276;2022-10-16T11:30:04;100414.72;;;14.21;51.82
74079;BME280;62437;51.544;-3.276;2022-10-16T11:32:30;100428.29;;;13.71;52.51
74079;BME280;62437;51.544;-3.276;2022-10-16T11:34:56;100428.73;;;12.70;54.40
74079;BME280;62437;51.544;-3.276;2022-10-16T11:37:21;100422.16;;;13.54;53.51
74079;BME280;62437;51.544;-3.276;2022-10-16T11:39:44;100423.25;;;12.91;54.89
74079;BME280;62437;51.544;-3.276;2022-10-16T11:42:11;100424.42;;;12.85;55.58
74079;BME280;62437;51.544;-3.276;2022-10-16T11:44:42;100420.23;;;12.39;57.29
74079;BME280;62437;51.544;-3.276;2022-10-16T11:47:08;100418.63;;;13.08;55.22
74079;BME280;62437;51.544;-3.276;2022-10-16T11:49:28;100420.19;;;12.64;56.43
74079;BME280;62437;51.544;-3.276;2022-10-16T11:51:59;100419.06;;;13.59;54.48
74079;BME280;62437;51.544;-3.276;2022-10-16T11:54:22;100418.42;;;13.17;54.80
74079;BME280;62437;51.544;-3.276;2022-10-16T11:56:44;100421.78;;;13.59;54.62
74079;BME280;62437;51.544;-3.276;2022-10-16T11:59:14;100419.43;;;13.06;55.73
74079;BME280;62437;51.544;-3.276;2022-10-16T12:01:40;100412.89;;;13.59;54.70
74079;BME280;62437;51.544;-3.276;2022-10-16T12:04:11;100411.46;;;13.24;55.15
74079;BME280;62437;51.544;-3.276;2022-10-16T12:06:31;100410.82;;;13.00;55.62
74079;BME280;62437;51.544;-3.276;2022-10-16T12:08:51;100411.50;;;13.26;55.76
74079;BME280;62437;51.544;-3.276;2022-10-16T12:11:31;100416.73;;;13.66;55.40
74079;BME280;62437;51.544;-3.276;2022-10-16T12:13:43;100417.83;;;13.82;54.11
74079;BME280;62437;51.544;-3.276;2022-10-16T12:18:33;100404.51;;;13.99;54.33
74079;BME280;62437;51.544;-3.276;2022-10-16T12:20:59;100404.25;;;13.26;55.98
74079;BME280;62437;51.544;-3.276;2022-10-16T12:23:24;100403.60;;;13.59;55.46
74079;BME280;62437;51.544;-3.276;2022-10-16T12:25:54;100396.66;;;12.55;58.07
74079;BME280;62437;51.544;-3.276;2022-10-16T12:28:20;100401.87;;;13.35;56.11
74079;BME280;62437;51.544;-3.276;2022-10-16T12:30:41;100395.00;;;12.61;57.94
74079;BME280;62437;51.544;-3.276;2022-10-16T12:35:33;100396.94;;;13.60;56.14
74079;BME280;62437;51.544;-3.276;2022-10-16T12:38:05;100390.33;;;13.03;57.21
74079;BME280;62437;51.544;-3.276;2022-10-16T12:40:27;100389.65;;;12.69;57.78
74079;BME280;62437;51.544;-3.276;2022-10-16T12:42:48;100392.31;;;13.08;57.14